Time;durP1;ratioP1;P1;durP2;ratioP2;P2;SDS_P1;SDS_P2;PMS_P1;PMS_P2;Temp;Humidity;BMP_temperature;BMP_pressure;BME280_temperature;BME280_humidity;BME280_pressure;Samples;Min_cycle;Max_cycle;Signal;HPM_P1;HPM_P2
2022/05/15 00:01:25;;;;;;;7.95;5.13;;;;;;;15.00;64.30;100565.84;5132944;27;20092;-64
2022/05/15 00:03:51;;;;;;;11.85;4.90;;;;;;;14.95;64.14;100555.50;5132755;27;20483;-64
2022/05/15 00:06:17;;;;;;;8.02;4.93;;;;;;;14.90;64.53;100563.22;5133226;27;20052;-64
2022/05/15 00:08:42;;;;;;;10.13;4.93;;;;;;;14.94;64.71;100570.03;5132658;27;20023;-63
2022/05/15 00:11:10;;;;;;;8.70;4.53;;;;;;;14.93;64.32;100575.56;5132845;27;20027;-64
2022/05/15 00:13:36;;;;;;;10.77;4.65;;;;;;;14.77;64.93;100548.44;5132809;27;20083;-65
2022/05/15 00:16:02;;;;;;;10.70;5.15;;;;;;;14.86;64.91;100569.06;5131976;27;20106;-64
2022/05/15 00:18:28;;;;;;;9.23;5.18;;;;;;;14.76;65.33;100552.97;5132665;27;20105;-64
2022/05/15 00:20:53;;;;;;;10.50;5.18;;;;;;;14.77;65.90;100565.47;5132311;27;20553;-64
2022/05/15 00:23:21;;;;;;;8.48;5.35;;;;;;;14.76;65.90;100561.06;5132442;27;20051;-65
2022/05/15 00:25:47;;;;;;;8.25;5.10;;;;;;;14.75;65.91;100561.22;5131115;27;20034;-64
2022/05/15 00:28:13;;;;;;;11.82;6.18;;;;;;;14.72;65.65;100559.69;5132589;27;20034;-63
2022/05/15 00:30:39;;;;;;;11.27;5.63;;;;;;;14.68;66.42;100561.00;5132626;27;20019;-64
2022/05/15 00:33:06;;;;;;;13.05;5.65;;;;;;;14.62;66.23;100558.06;5132229;27;20033;-65
2022/05/15 00:35:35;;;;;;;8.48;5.22;;;;;;;14.58;65.74;100540.50;5132398;27;20027;-70
2022/05/15 00:38:00;;;;;;;8.50;5.47;;;;;;;14.62;65.97;100563.47;5131821;27;20075;-70
2022/05/15 00:40:26;;;;;;;7.53;5.28;;;;;;;14.59;66.40;100564.63;5131963;27;20031;-70
2022/05/15 00:42:51;;;;;;;11.27;5.63;;;;;;;14.49;66.38;100561.16;5131710;27;20023;-70
2022/05/15 00:45:21;;;;;;;8.15;5.70;;;;;;;14.53;66.08;100556.28;5130866;27;20030;-71
2022/05/15 00:47:47;;;;;;;8.27;5.63;;;;;;;14.54;65.87;100576.91;5131829;27;20031;-70
2022/05/15 00:50:17;;;;;;;10.57;5.07;;;;;;;14.52;65.69;100558.16;5131523;27;20064;-70
2022/05/15 00:52:48;;;;;;;8.27;5.00;;;;;;;14.45;66.45;100557.06;5131591;27;20090;-70
2022/05/15 00:55:41;;;;;;;8.10;5.38;;;;;;;14.49;65.95;100568.41;5130925;27;20407;-70
2022/05/15 00:58:12;;;;;;;9.52;5.07;;;;;;;14.47;65.95;100556.91;5121019;27;20031;-70
2022/05/15 01:00:40;;;;;;;7.18;5.10;;;;;;;14.42;66.72;100564.63;5131428;27;20516;-70
2022/05/15 01:03:10;;;;;;;10.65;5.30;;;;;;;14.41;67.35;100566.47;5131132;27;20030;-70
2022/05/15 01:05:40;;;;;;;10.52;5.40;;;;;;;14.35;66.81;100561.69;5131396;27;20023;-69
2022/05/15 01:08:06;;;;;;;9.65;5.68;;;;;;;14.38;67.32;100569.47;5130916;27;20037;-70
2022/05/15 01:10:34;;;;;;;8.55;5.65;;;;;;;14.29;67.16;100550.66;5131682;27;20621;-70
2022/05/15 01:13:00;;;;;;;11.80;5.55;;;;;;;14.31;67.54;100565.69;5131415;27;20042;-70
2022/05/15 01:15:27;;;;;;;10.05;4.93;;;;;;;14.30;66.98;100568.53;5131175;27;20019;-68
2022/05/15 01:17:53;;;;;;;7.32;4.95;;;;;;;14.28;66.96;100571.38;5131050;27;20385;-70
2022/05/15 01:20:24;;;;;;;11.30;5.20;;;;;;;14.26;67.81;100572.53;5131418;27;20023;-69
2022/05/15 01:22:50;;;;;;;9.10;4.95;;;;;;;14.22;68.28;100574.66;5131239;27;20111;-71
2022/05/15 01:25:18;;;;;;;9.40;5.43;;;;;;;14.19;68.72;100564.16;5131373;27;20031;-70
2022/05/15 01:27:58;;;;;;;8.77;5.57;;;;;;;14.13;67.91;100551.31;5130392;27;20027;-70
2022/05/15 01:30:24;;;;;;;9.15;5.22;;;;;;;14.11;68.31;100563.22;5131528;27;20345;-70
2022/05/15 01:32:50;;;;;;;9.00;4.95;;;;;;;14.11;68.18;100565.91;5131278;27;20091;-69
2022/05/15 01:35:16;;;;;;;6.10;5.47;;;;;;;14.04;68.31;100563.00;5129857;27;20023;-69
2022/05/15 01:37:42;;;;;;;10.25;5.18;;;;;;;14.04;68.66;100576.47;5131155;27;20076;-70
2022/05/15 01:40:09;;;;;;;6.60;5.05;;;;;;;14.01;69.29;100581.31;5130879;27;20035;-69
2022/05/15 01:42:35;;;;;;;8.70;5.38;;;;;;;14.00;68.88;100582.31;5130781;27;20034;-71
2022/05/15 01:45:01;;;;;;;7.97;4.97;;;;;;;14.00;68.05;100577.78;5130619;27;20027;-70
2022/05/15 01:47:26;;;;;;;7.18;4.45;;;;;;;13.97;68.63;100583.47;5130998;27;20084;-70
2022/05/15 01:49:51;;;;;;;6.93;5.30;;;;;;;13.96;69.11;100589.84;5130566;27;20037;-71
2022/05/15 01:52:17;;;;;;;10.38;5.10;;;;;;;13.94;69.61;100588.31;5130857;27;20502;-69
2022/05/15 01:54:43;;;;;;;10.20;5.32;;;;;;;13.88;69.98;100588.91;5130677;27;20096;-70
2022/05/15 01:57:08;;;;;;;7.18;5.00;;;;;;;13.84;69.59;100576.72;5130284;27;20027;-70
2022/05/15 01:59:34;;;;;;;7.15;4.90;;;;;;;13.73;69.60;100562.44;5130264;27;20023;-71
2022/05/15 02:01:59;;;;;;;6.70;4.82;;;;;;;13.87;69.01;100595.31;5128994;27;20038;-71
2022/05/15 02:04:25;;;;;;;9.57;5.13;;;;;;;13.87;69.79;100596.16;5130690;27;20031;-70
2022/05/15 02:06:50;;;;;;;10.50;5.47;;;;;;;13.77;69.89;100585.41;5130231;27;20027;-70
2022/05/15 02:09:16;;;;;;;10.98;5.63;;;;;;;13.69;69.98;100570.97;5130455;27;20435;-71
2022/05/15 02:11:42;;;;;;;9.05;5.47;;;;;;;13.76;69.92;100582.03;5130281;27;20110;-70
2022/05/15 02:14:08;;;;;;;12.40;5.88;;;;;;;13.81;71.07;100588.66;5130053;27;20019;-69
2022/05/15 02:16:33;;;;;;;7.30;5.35;;;;;;;13.69;70.37;100577.22;5130211;27;20023;-70
2022/05/15 02:18:59;;;;;;;13.85;6.38;;;;;;;13.78;70.93;100591.66;5130057;27;20023;-69
2022/05/15 02:21:24;;;;;;;7.18;5.82;;;;;;;13.81;70.63;100595.88;5128807;27;20023;-70
2022/05/15 02:23:50;;;;;;;11.90;6.10;;;;;;;13.70;70.17;100581.59;5129960;27;20043;-70
2022/05/15 02:26:15;;;;;;;9.25;5.97;;;;;;;13.75;70.19;100594.66;5128747;27;20023;-69
2022/05/15 02:28:41;;;;;;;13.93;6.00;;;;;;;13.68;70.34;100590.84;5130190;27;20041;-70
2022/05/15 02:31:06;;;;;;;10.63;6.32;;;;;;;13.72;69.91;100603.03;5129906;27;20055;-70
2022/05/15 02:33:33;;;;;;;9.07;6.22;;;;;;;13.69;70.77;100603.31;5130231;27;20175;-70
2022/05/15 02:36:00;;;;;;;8.57;6.13;;;;;;;13.66;70.58;100607.16;5129875;27;20114;-70
2022/05/15 02:38:26;;;;;;;7.15;5.85;;;;;;;13.55;70.86;100593.84;5129816;27;20054;-70
2022/05/15 02:40:51;;;;;;;9.40;5.70;;;;;;;13.54;70.91;100594.00;5129569;27;20034;-69
2022/05/15 02:43:17;;;;;;;10.35;6.18;;;;;;;13.56;70.99;100600.09;5129671;27;20031;-70
2022/05/15 02:45:42;;;;;;;9.20;5.65;;;;;;;13.50;71.80;100595.28;5129713;27;20031;-70
2022/05/15 02:51:03;;;;;;;8.30;6.18;;;;;;;13.48;72.24;100603.53;5129336;27;20379;-70
2022/05/15 02:51:05;;;;;;;9.80;5.78;;;;;;;13.42;72.04;100595.19;5128547;28;20424;-70
2022/05/15 02:53:36;;;;;;;9.73;6.07;;;;;;;13.44;72.23;100603.97;5128572;27;20047;-71
2022/05/15 02:56:06;;;;;;;12.88;6.38;;;;;;;13.42;72.21;100603.28;5128113;28;20023;-70
2022/05/15 02:58:32;;;;;;;9.10;6.28;;;;;;;13.42;72.72;100609.50;5129746;27;20700;-69
2022/05/15 03:00:57;;;;;;;8.43;6.13;;;;;;;13.41;72.53;100615.03;5127331;28;20043;-71
2022/05/15 03:03:24;;;;;;;10.48;6.00;;;;;;;13.37;72.71;100610.94;5129939;27;20074;-70
2022/05/15 03:05:50;;;;;;;10.18;6.43;;;;;;;13.36;73.25;100614.63;5129337;27;20058;-69
2022/05/15 03:08:16;;;;;;;10.63;6.63;;;;;;;13.32;73.53;100608.66;5129576;27;20066;-69
2022/05/15 03:10:41;;;;;;;13.27;6.00;;;;;;;13.27;73.45;100610.97;5129520;27;20050;-70
2022/05/15 03:13:07;;;;;;;12.25;5.88;;;;;;;13.30;73.09;100616.06;5129516;27;20031;-70
2022/05/15 03:15:32;;;;;;;15.60;6.90;;;;;;;13.27;73.47;100616.34;5128227;27;20037;-69
2022/05/15 03:17:57;;;;;;;9.18;6.18;;;;;;;13.25;73.83;100615.63;5128756;27;20038;-70
2022/05/15 03:20:27;;;;;;;12.95;6.93;;;;;;;13.22;73.71;100612.41;5129635;27;20037;-70
2022/05/15 03:22:54;;;;;;;7.57;6.60;;;;;;;13.17;74.18;100610.13;5129771;27;20035;-70
2022/05/15 03:25:20;;;;;;;16.63;7.05;;;;;;;13.14;74.77;100614.94;5129679;27;20530;-71
2022/05/15 03:27:45;;;;;;;11.57;6.68;;;;;;;13.17;74.52;100617.34;5128334;28;20087;-70
2022/05/15 03:30:12;;;;;;;14.02;6.97;;;;;;;13.16;74.77;100615.66;5127177;27;20023;-70
2022/05/15 03:32:37;;;;;;;12.50;7.30;;;;;;;13.09;74.70;100611.84;5129035;27;20038;-69
2022/05/15 03:35:05;;;;;;;14.60;7.07;;;;;;;13.06;75.21;100606.75;5128448;27;20106;-70
2022/05/15 03:37:30;;;;;;;13.60;7.28;;;;;;;13.04;75.85;100609.56;5128521;28;20065;-69
2022/05/15 03:39:55;;;;;;;10.23;6.90;;;;;;;13.06;75.42;100612.97;5128766;27;20055;-70
2022/05/15 03:42:21;;;;;;;12.00;6.88;;;;;;;13.07;75.87;100613.81;5128764;27;20102;-70
2022/05/15 03:44:46;;;;;;;11.45;6.90;;;;;;;13.07;75.10;100625.44;5127397;28;20059;-70
2022/05/15 03:47:12;;;;;;;11.68;7.18;;;;;;;13.06;75.51;100617.53;5128562;27;20039;-70
2022/05/15 03:49:37;;;;;;;8.25;6.18;;;;;;;13.05;76.03;100613.09;5128748;27;20056;-70
2022/05/15 03:52:03;;;;;;;7.82;6.60;;;;;;;13.11;76.93;100618.78;5132400;27;20091;-70
2022/05/15 03:54:29;;;;;;;13.43;6.75;;;;;;;13.15;76.41;100617.50;5132740;27;20426;-70
2022/05/15 03:56:54;;;;;;;11.55;7.57;;;;;;;13.18;77.12;100606.44;5133054;27;20110;-70
2022/05/15 03:59:33;;;;;;;10.18;7.10;;;;;;;13.30;76.96;100621.44;5132820;27;20084;-70
2022/05/15 04:02:00;;;;;;;10.35;6.55;;;;;;;13.42;75.87;100625.66;5132555;27;20051;-70
2022/05/15 04:04:26;;;;;;;11.95;7.13;;;;;;;13.56;76.16;100621.66;5132915;27;20536;-70
2022/05/15 04:06:52;;;;;;;10.02;7.13;;;;;;;13.66;75.14;100614.38;5131519;27;20019;-71
2022/05/15 04:09:17;;;;;;;8.73;6.32;;;;;;;13.83;74.92;100629.78;5132939;27;20080;-70
2022/05/15 04:11:43;;;;;;;10.98;6.93;;;;;;;13.96;73.82;100624.06;5132774;27;20467;-70
2022/05/15 04:14:09;;;;;;;11.77;7.03;;;;;;;14.04;73.58;100625.03;5132761;27;20380;-70
2022/05/15 04:16:35;;;;;;;10.45;7.35;;;;;;;14.12;75.04;100624.28;5132612;27;20483;-69
2022/05/15 04:19:01;;;;;;;15.27;7.22;;;;;;;14.19;73.27;100618.13;5132358;27;20046;-70
2022/05/15 04:21:28;;;;;;;9.38;6.68;;;;;;;14.40;72.48;100620.59;5132511;27;20030;-71
2022/05/15 04:23:53;;;;;;;8.77;7.15;;;;;;;14.60;71.17;100625.72;5132687;27;20031;-70
2022/05/15 04:26:19;;;;;;;13.38;6.13;;;;;;;14.79;70.29;100622.88;5132447;27;20088;-71
2022/05/15 04:28:45;;;;;;;8.73;6.07;;;;;;;14.99;69.36;100627.09;5132490;27;20758;-71
2022/05/15 04:31:10;;;;;;;14.95;6.47;;;;;;;15.19;68.40;100628.63;5132253;27;20035;-70
2022/05/15 04:33:35;;;;;;;10.70;6.00;;;;;;;15.39;67.36;100632.91;5132328;27;20015;-71
2022/05/15 04:36:02;;;;;;;11.60;6.35;;;;;;;15.57;66.55;100619.31;5131997;27;20027;-70
2022/05/15 04:38:28;;;;;;;12.50;6.18;;;;;;;15.75;65.85;100626.38;5132363;27;20368;-69
2022/05/15 04:40:53;;;;;;;10.77;6.30;;;;;;;15.84;65.67;100625.38;5132029;27;20050;-71
2022/05/15 04:43:19;;;;;;;10.98;6.68;;;;;;;15.95;65.46;100613.44;5132109;27;20031;-70
2022/05/15 04:45:45;;;;;;;9.15;6.03;;;;;;;16.13;65.07;100613.34;5132164;27;20594;-71
2022/05/15 04:48:12;;;;;;;6.93;5.25;;;;;;;16.33;64.94;100626.47;5131774;27;20019;-71
2022/05/15 04:50:38;;;;;;;7.88;5.05;;;;;;;16.45;64.55;100629.75;5132046;27;20409;-72
2022/05/15 04:53:05;;;;;;;8.65;4.63;;;;;;;16.63;64.21;100633.16;5130344;27;20530;-69
2022/05/15 04:55:30;;;;;;;8.05;4.82;;;;;;;16.80;63.97;100645.75;5132096;27;20027;-71
2022/05/15 04:57:56;;;;;;;10.27;3.80;;;;;;;16.98;63.48;100639.19;5131803;27;20023;-71
2022/05/15 05:00:21;;;;;;;7.72;3.83;;;;;;;17.10;62.88;100626.16;5130073;27;20027;-70
2022/05/15 05:02:47;;;;;;;9.55;4.15;;;;;;;17.27;62.29;100633.25;5131775;27;20115;-71
2022/05/15 05:05:12;;;;;;;8.48;4.03;;;;;;;17.56;61.39;100647.16;5131446;27;20506;-71
2022/05/15 05:07:39;;;;;;;7.95;4.00;;;;;;;17.81;60.69;100643.41;5131433;27;20038;-72
2022/05/15 05:10:06;;;;;;;6.45;3.60;;;;;;;18.14;60.74;100653.16;5131140;27;20428;-65
2022/05/15 05:12:31;;;;;;;9.77;4.03;;;;;;;18.40;58.44;100636.59;5129902;27;20364;-64
2022/05/15 05:14:58;;;;;;;7.13;3.63;;;;;;;18.73;57.66;100638.13;5131263;27;20027;-64
2022/05/15 05:17:24;;;;;;;8.45;4.03;;;;;;;19.00;56.57;100638.47;5131285;27;20038;-63
2022/05/15 05:19:50;;;;;;;5.47;3.33;;;;;;;19.25;55.87;100642.66;5131012;27;20530;-63
2022/05/15 05:22:15;;;;;;;7.03;3.80;;;;;;;19.44;55.34;100652.25;5130905;27;20031;-63
2022/05/15 05:24:40;;;;;;;5.18;3.10;;;;;;;19.62;54.94;100650.88;5130789;27;20027;-64
2022/05/15 05:27:06;;;;;;;5.18;3.00;;;;;;;19.76;54.41;100647.34;5130832;27;20035;-63
2022/05/15 05:29:32;;;;;;;8.25;3.90;;;;;;;19.87;53.32;100638.69;5129556;27;20023;-63
2022/05/15 05:31:57;;;;;;;5.50;3.60;;;;;;;20.03;53.72;100640.41;5130193;27;20398;-64
2022/05/15 05:34:23;;;;;;;7.00;3.47;;;;;;;20.17;52.97;100645.91;5130525;27;20050;-64
2022/05/15 05:36:48;;;;;;;6.70;3.28;;;;;;;20.27;51.72;100634.69;5129953;27;20095;-63
2022/05/15 05:39:14;;;;;;;5.35;3.08;;;;;;;20.49;51.49;100654.69;5129792;27;20030;-63
2022/05/15 05:41:39;;;;;;;7.90;3.40;;;;;;;20.57;51.36;100651.88;5129885;27;20019;-63
2022/05/15 05:44:05;;;;;;;8.27;3.20;;;;;;;20.62;51.25;100635.78;5129430;27;20031;-64
2022/05/15 05:46:31;;;;;;;8.80;3.00;;;;;;;20.70;51.02;100641.94;5129596;27;20070;-65
2022/05/15 05:48:57;;;;;;;9.05;3.28;;;;;;;20.90;50.87;100656.69;5129619;27;20065;-64
2022/05/15 05:51:23;;;;;;;4.72;2.92;;;;;;;21.03;50.32;100656.84;5129514;27;20023;-64
2022/05/15 05:53:48;;;;;;;8.20;3.10;;;;;;;21.10;49.94;100637.81;5129328;27;20054;-64
2022/05/15 05:56:15;;;;;;;4.38;2.95;;;;;;;21.31;49.10;100644.13;5128258;27;20019;-64
2022/05/15 05:58:40;;;;;;;7.45;2.80;;;;;;;21.47;48.33;100649.28;5129391;27;21187;-64
2022/05/15 06:01:06;;;;;;;3.78;2.17;;;;;;;21.60;48.19;100656.78;5127538;27;20039;-64
2022/05/15 06:06:17;;;;;;;7.00;2.80;;;;;;;21.80;47.32;100646.88;5129379;27;20582;-64
2022/05/15 06:08:42;;;;;;;6.55;2.88;;;;;;;21.89;47.28;100649.25;5129067;27;20797;-65
2022/05/15 06:11:12;;;;;;;6.03;3.03;;;;;;;22.05;47.24;100656.28;5128581;27;20117;-71
2022/05/15 06:13:39;;;;;;;4.20;2.67;;;;;;;22.15;47.15;100652.16;5126870;27;20106;-71
2022/05/15 06:16:06;;;;;;;7.93;2.90;;;;;;;22.29;46.80;100653.91;5126183;27;20076;-72
2022/05/15 06:18:32;;;;;;;9.25;2.83;;;;;;;22.52;46.37;100666.47;5125804;27;20023;-72
2022/05/15 06:20:57;;;;;;;5.20;2.80;;;;;;;22.58;46.20;100657.44;5128879;27;20034;-72
2022/05/15 06:23:23;;;;;;;6.82;2.90;;;;;;;22.72;46.00;100657.31;5129458;27;20019;-72
2022/05/15 06:25:48;;;;;;;6.25;2.70;;;;;;;22.88;45.17;100659.69;5128993;27;20027;-72
2022/05/15 06:28:13;;;;;;;8.93;2.75;;;;;;;22.94;45.04;100669.78;5129166;27;20027;-72
2022/05/15 06:30:39;;;;;;;4.35;2.88;;;;;;;23.04;45.08;100659.31;5128891;27;20020;-72
2022/05/15 06:33:06;;;;;;;6.03;3.08;;;;;;;23.14;44.84;100662.47;5128801;27;20031;-72
2022/05/15 06:35:32;;;;;;;5.15;2.92;;;;;;;23.21;44.61;100644.16;5128985;27;20487;-73
2022/05/15 06:38:07;;;;;;;4.10;2.20;;;;;;;23.51;44.09;100652.88;5128827;27;20027;-72
2022/05/15 06:40:33;;;;;;;4.93;2.85;;;;;;;23.54;43.88;100655.19;5128796;27;20107;-73
2022/05/15 06:42:59;;;;;;;5.45;2.60;;;;;;;23.59;43.60;100653.50;5128675;27;20487;-73
2022/05/15 06:45:27;;;;;;;5.05;2.90;;;;;;;23.69;43.71;100662.16;5129100;27;20034;-74
2022/05/15 06:47:53;;;;;;;5.28;2.25;;;;;;;23.66;43.74;100658.97;5127601;28;20662;-72
2022/05/15 06:50:18;;;;;;;6.18;2.78;;;;;;;23.70;43.79;100655.59;5127191;28;20024;-73
2022/05/15 06:52:44;;;;;;;3.72;2.63;;;;;;;23.90;43.88;100661.91;5129040;27;20023;-73
2022/05/15 06:55:15;;;;;;;8.65;3.08;;;;;;;24.09;43.40;100663.81;5122411;27;20070;-73
2022/05/15 06:57:42;;;;;;;5.60;2.45;;;;;;;24.21;42.90;100670.34;5123498;27;20027;-73
2022/05/15 07:00:17;;;;;;;3.28;2.40;;;;;;;24.37;42.54;100669.88;5127026;27;20019;-72
2022/05/15 07:02:43;;;;;;;5.95;2.67;;;;;;;24.48;41.86;100671.13;5126394;28;20035;-73
2022/05/15 07:05:14;;;;;;;8.68;3.15;;;;;;;24.64;41.98;100678.06;5128329;27;20019;-73
2022/05/15 07:07:40;;;;;;;3.97;2.33;;;;;;;24.78;41.77;100665.94;5128802;27;20492;-74
2022/05/15 07:10:07;;;;;;;4.32;2.80;;;;;;;24.99;40.94;100669.22;5127121;28;20054;-73
2022/05/15 07:12:32;;;;;;;8.68;3.33;;;;;;;25.11;40.61;100663.91;5128493;28;20115;-73
2022/05/15 07:14:58;;;;;;;8.10;3.08;;;;;;;25.29;40.36;100678.56;5128479;27;20394;-73
2022/05/15 07:17:23;;;;;;;6.13;3.30;;;;;;;25.37;39.96;100681.06;5127269;28;20058;-72
2022/05/15 07:19:49;;;;;;;3.88;2.17;;;;;;;25.51;39.92;100674.44;5128575;27;20249;-73
2022/05/15 07:22:14;;;;;;;3.22;2.17;;;;;;;25.63;39.88;100677.31;5126677;28;20031;-73
2022/05/15 07:24:40;;;;;;;5.03;2.15;;;;;;;25.71;38.79;100666.00;5128899;27;20027;-74
2022/05/15 07:27:07;;;;;;;7.40;2.30;;;;;;;25.71;38.86;100679.75;5132095;27;20023;-73
2022/05/15 07:29:36;;;;;;;5.85;2.15;;;;;;;25.69;38.66;100671.72;5131340;27;20567;-74
2022/05/15 07:32:03;;;;;;;10.90;2.58;;;;;;;25.79;38.51;100672.06;5132334;27;20015;-72
2022/05/15 07:34:28;;;;;;;4.97;2.15;;;;;;;25.97;38.50;100683.16;5132040;27;20126;-73
2022/05/15 07:36:54;;;;;;;5.75;2.10;;;;;;;26.05;38.08;100687.53;5132249;27;20106;-73
2022/05/15 07:39:20;;;;;;;4.82;2.30;;;;;;;26.13;37.35;100684.47;5132360;27;20019;-74
2022/05/15 07:41:46;;;;;;;6.60;1.83;;;;;;;26.23;36.89;100685.66;5132054;27;20027;-73
2022/05/15 07:44:12;;;;;;;4.45;2.05;;;;;;;26.30;36.93;100674.56;5132040;27;20102;-73
2022/05/15 07:46:39;;;;;;;6.22;2.47;;;;;;;26.50;36.33;100677.94;5130990;27;20134;-73
2022/05/15 07:49:05;;;;;;;4.05;1.90;;;;;;;26.63;35.08;100674.22;5131764;27;20041;-73
2022/05/15 07:51:32;;;;;;;4.55;2.25;;;;;;;26.62;35.21;100676.13;5132179;27;20027;-73
2022/05/15 07:53:58;;;;;;;6.68;2.10;;;;;;;26.54;35.48;100659.91;5131996;27;20604;-73
2022/05/15 07:56:23;;;;;;;4.00;1.85;;;;;;;26.68;34.51;100669.72;5131506;27;20027;-73
2022/05/15 07:58:49;;;;;;;3.00;1.70;;;;;;;26.78;33.91;100678.25;5132150;27;20046;-73
2022/05/15 08:01:15;;;;;;;6.00;1.98;;;;;;;26.84;33.97;100666.34;5131841;27;20112;-74
2022/05/15 08:03:43;;;;;;;4.55;1.83;;;;;;;27.00;33.18;100675.84;5131623;27;20126;-73
2022/05/15 08:08:59;;;;;;;6.03;2.40;;;;;;;27.07;33.31;100669.19;5132261;27;20050;-73
2022/05/15 08:11:28;;;;;;;5.18;1.90;;;;;;;27.05;33.79;100679.59;5131754;27;20121;-73
2022/05/15 08:13:58;;;;;;;4.03;1.92;;;;;;;27.04;34.04;100682.56;5131729;27;20030;-73
2022/05/15 08:16:24;;;;;;;4.03;1.80;;;;;;;27.07;34.54;100666.44;5131431;27;20262;-73
2022/05/15 08:24:19;;;;;;;4.32;2.08;;;;;;;27.28;33.07;100676.13;5131563;27;20453;-73
2022/05/15 08:26:45;;;;;;;3.55;1.48;;;;;;;27.30;33.06;100685.84;5130838;27;20027;-75
2022/05/15 08:29:11;;;;;;;4.82;1.88;;;;;;;27.30;33.17;100682.22;5131430;27;20071;-74
2022/05/15 08:31:39;;;;;;;6.60;2.30;;;;;;;27.32;32.82;100683.69;5130294;27;20098;-73
2022/05/15 08:34:05;;;;;;;5.82;2.13;;;;;;;27.35;33.26;100674.13;5129818;27;20035;-74
2022/05/15 08:36:31;;;;;;;4.00;2.40;;;;;;;27.41;32.88;100685.06;5129141;27;20023;-74
2022/05/15 08:38:57;;;;;;;7.10;2.45;;;;;;;27.38;32.73;100674.50;5133273;27;20403;-73
2022/05/15 08:41:31;;;;;;;7.85;1.90;;;;;;;27.42;32.68;100683.97;5132079;27;20088;-74
2022/05/15 08:44:18;;;;;;;7.30;2.45;;;;;;;27.37;32.37;100678.31;5131820;27;20038;-75
2022/05/15 08:46:47;;;;;;;5.53;2.08;;;;;;;27.46;32.57;100689.84;5132131;27;20027;-73
2022/05/15 08:49:20;;;;;;;5.32;2.08;;;;;;;27.52;32.35;100675.97;5132069;27;20031;-72
2022/05/15 08:52:13;;;;;;;5.68;2.35;;;;;;;27.55;32.83;100675.50;5131869;27;20046;-74
2022/05/15 08:55:06;;;;;;;4.80;2.03;;;;;;;27.69;31.69;100682.47;5094566;27;20039;-73
2022/05/15 08:57:50;;;;;;;8.27;2.10;;;;;;;27.72;31.94;100679.25;5130664;27;20034;-76
2022/05/15 09:00:21;;;;;;;5.05;1.92;;;;;;;27.79;31.90;100684.66;5131657;27;20081;-74
2022/05/15 09:02:47;;;;;;;14.45;2.40;;;;;;;27.79;31.96;100677.22;5129343;27;20034;-74
2022/05/15 09:05:14;;;;;;;6.45;2.30;;;;;;;27.86;32.20;100682.66;5128472;27;20434;-74
2022/05/15 09:07:42;;;;;;;5.88;2.65;;;;;;;27.88;31.55;100681.34;5129135;27;20062;-74
2022/05/15 09:10:27;;;;;;;9.40;2.50;;;;;;;27.94;31.39;100682.28;5129981;27;20039;-74
2022/05/15 09:13:14;;;;;;;5.90;2.05;;;;;;;28.00;31.70;100679.44;5129984;27;20043;-74
2022/05/15 09:15:58;;;;;;;4.32;2.03;;;;;;;28.02;30.57;100677.25;5125673;27;20168;-72
2022/05/15 09:18:24;;;;;;;3.87;1.70;;;;;;;28.03;30.75;100673.44;5126518;27;20031;-73
2022/05/15 09:20:52;;;;;;;12.88;2.75;;;;;;;28.03;30.31;100676.19;5125979;27;20059;-74
2022/05/15 09:23:53;;;;;;;5.65;1.85;;;;;;;27.99;30.43;100677.72;5126678;27;20037;-74
2022/05/15 09:26:30;;;;;;;5.32;2.00;;;;;;;28.00;30.62;100675.81;5116128;27;20039;-73
2022/05/15 09:29:00;;;;;;;4.55;2.00;;;;;;;27.99;30.52;100668.63;5127089;27;20035;-74
2022/05/15 09:31:29;;;;;;;4.80;2.00;;;;;;;27.96;30.24;100672.69;5129538;27;20041;-74
2022/05/15 09:34:02;;;;;;;6.90;2.55;;;;;;;27.93;30.29;100675.97;5128198;27;20041;-74
2022/05/15 09:36:35;;;;;;;3.05;1.50;;;;;;;27.94;29.89;100674.00;5127960;27;20498;-73
2022/05/15 09:39:25;;;;;;;3.92;1.92;;;;;;;27.82;30.65;100673.97;5129253;27;20027;-73
2022/05/15 09:45:07;;;;;;;6.55;1.98;;;;;;;27.73;31.27;100667.13;5127735;27;20103;-74
2022/05/15 09:47:39;;;;;;;4.05;1.63;;;;;;;27.69;31.36;100674.19;5127127;27;20028;-74
2022/05/15 09:50:09;;;;;;;5.35;2.90;;;;;;;27.65;31.24;100674.91;5126582;27;20056;-75
2022/05/15 09:52:40;;;;;;;4.40;2.08;;;;;;;27.65;31.27;100664.72;5127692;27;20031;-73
2022/05/15 09:55:25;;;;;;;4.88;2.78;;;;;;;27.64;30.68;100659.44;5129285;27;20058;-75
2022/05/15 09:58:06;;;;;;;15.77;2.30;;;;;;;27.72;31.09;100653.56;5128549;27;20511;-74
2022/05/15 10:00:36;;;;;;;18.48;3.35;;;;;;;27.64;31.47;100659.44;5129240;27;20599;-74
2022/05/15 10:03:26;;;;;;;4.45;2.30;;;;;;;27.63;30.89;100666.06;5129111;27;20646;-75
2022/05/15 10:06:06;;;;;;;4.53;2.22;;;;;;;27.55;30.97;100652.59;5128199;27;20033;-73
2022/05/15 10:08:32;;;;;;;6.40;2.92;;;;;;;27.61;30.89;100666.28;5127132;27;20488;-74
2022/05/15 10:11:11;;;;;;;4.72;2.10;;;;;;;27.62;31.03;100656.06;5128660;27;20038;-74
2022/05/15 10:13:44;;;;;;;5.30;1.83;;;;;;;27.63;30.65;100649.50;5127339;27;20491;-74
2022/05/15 10:16:13;;;;;;;4.55;2.45;;;;;;;27.67;30.33;100656.22;5126631;27;20027;-73
2022/05/15 10:18:50;;;;;;;3.17;2.00;;;;;;;27.69;30.41;100652.13;5128807;27;20480;-74
2022/05/15 10:24:43;;;;;;;3.97;1.50;;;;;;;27.73;30.43;100638.72;5111246;22;20086;-66
2022/05/15 10:27:31;;;;;;;4.03;1.88;;;;;;;27.81;30.34;100643.88;5105016;28;20023;-66
2022/05/15 10:30:25;;;;;;;5.10;1.85;;;;;;;27.79;31.25;100646.88;5105971;28;20127;-66
2022/05/15 10:32:55;;;;;;;;;;;;;;;27.79;30.93;100644.13;5102073;28;20112;-67
2022/05/15 10:35:35;;;;;;;4.90;1.88;;;;;;;27.77;31.22;100629.75;5102053;28;19912;-66
2022/05/15 10:38:34;;;;;;;6.88;2.00;;;;;;;27.75;29.85;100628.28;5103617;28;20035;-65
2022/05/15 10:41:13;;;;;;;4.35;1.70;;;;;;;27.84;29.48;100635.97;5087287;28;20067;-66
2022/05/15 10:43:53;;;;;;;4.05;1.80;;;;;;;27.82;29.75;100637.31;5087911;28;20106;-67
2022/05/15 10:46:49;;;;;;;6.47;1.70;;;;;;;27.78;29.17;100631.41;5102517;28;20088;-66
2022/05/15 10:49:24;;;;;;;8.57;2.05;;;;;;;27.76;29.65;100632.75;5087443;28;20020;-67
2022/05/15 10:52:07;;;;;;;2.72;1.45;;;;;;;27.68;29.35;100614.63;5069143;28;20131;-67
2022/05/15 10:58:11;;;;;;;9.85;2.00;;;;;;;27.71;29.78;100627.09;5107902;28;20088;-67
2022/05/15 11:00:49;;;;;;;2.65;1.90;;;;;;;27.67;29.51;100626.75;5111631;28;20023;-66
2022/05/15 11:03:55;;;;;;;5.30;1.52;;;;;;;27.63;29.96;100622.75;5111409;28;20062;-67
2022/05/15 11:06:52;;;;;;;4.22;1.98;;;;;;;27.67;29.82;100618.47;5030805;28;20037;-68
2022/05/15 11:09:59;;;;;;;3.30;1.63;;;;;;;27.65;29.46;100617.00;5107176;27;20040;-67
2022/05/15 11:12:34;;;;;;;3.20;1.70;;;;;;;27.59;29.56;100601.44;5091503;28;20036;-66
2022/05/15 11:15:15;;;;;;;7.32;2.47;;;;;;;27.67;29.71;100601.94;5091272;28;20441;-67
2022/05/15 11:18:02;;;;;;;3.60;1.58;;;;;;;27.71;29.83;100603.13;5072308;28;20047;-66
2022/05/15 11:20:39;;;;;;;3.70;1.55;;;;;;;27.75;29.91;100607.09;5091192;28;20036;-66
2022/05/15 11:23:12;;;;;;;10.27;2.00;;;;;;;27.74;29.98;100588.88;5090154;28;20738;-67
2022/05/15 11:25:53;;;;;;;3.72;1.60;;;;;;;27.86;29.42;100605.44;5091896;28;20024;-67
2022/05/15 11:28:27;;;;;;;4.13;1.60;;;;;;;27.85;29.78;100601.00;5090181;28;20440;-67
2022/05/15 11:31:09;;;;;;;4.38;1.63;;;;;;;27.85;29.53;100585.28;5091363;28;20387;-68
2022/05/15 11:33:44;;;;;;;6.47;1.90;;;;;;;27.90;29.31;100595.59;5101293;28;20039;-67
2022/05/15 11:36:13;;;;;;;5.88;2.00;;;;;;;27.93;28.89;100595.97;5109766;28;20107;-66
2022/05/15 11:38:51;;;;;;;3.67;2.00;;;;;;;27.93;28.75;100595.97;5088547;28;20036;-67
2022/05/15 11:41:31;;;;;;;3.20;1.80;;;;;;;27.89;28.60;100578.22;5091106;28;20032;-67
2022/05/15 11:43:59;;;;;;;5.47;2.00;;;;;;;27.89;28.75;100575.44;5090012;28;20652;-66
2022/05/15 11:46:47;;;;;;;3.47;1.58;;;;;;;27.95;28.88;100574.50;5089755;28;20030;-67
2022/05/15 11:49:33;;;;;;;4.90;2.30;;;;;;;27.95;28.81;100570.91;5072291;28;20036;-66
2022/05/15 11:52:08;;;;;;;7.68;1.95;;;;;;;27.95;29.02;100574.50;5090432;28;20095;-67
2022/05/15 11:54:37;;;;;;;4.45;1.65;;;;;;;28.00;28.98;100566.34;5094019;28;20047;-68
2022/05/15 11:57:07;;;;;;;3.17;1.63;;;;;;;28.10;28.47;100561.06;5110621;28;20086;-66